EDSB/FKB METAR and TAF weather

Enter ICAO airport designator
Station Type Date Time Source
EDSB METAR 2018/10/21 03:20 UTC NOAA

EDSB 210320Z 04007KT 7000 NSC 06/06 Q1028


Station Type Date Time Source
EDSB Decoded METAR 2018/10/21 03:20 UTC NOAA

Karlsruhe, Baden Wurttemberg, Germany (EDSB) 48-46-43N 008-04-47E
Oct 20, 2018 - 11:20 PM EDT / 2018.10.21 0320 UTC
Wind: from the NE (040 degrees) at 8 MPH (7 KT):0
Visibility: 4 mile(s):0
Temperature: 42 F (6 C)
Dew Point: 42 F (6 C)
Relative Humidity: 100%
Pressure (altimeter): 30.36 in. Hg (1028 hPa)
ob: EDSB 210320Z 04007KT 7000 NSC 06/06 Q1028
cycle: 3

Station Type Date Time Source
EDSB TAF 2018/10/20 22:58 UTC NOAA

TAF EDSB 202251Z 2022/2118 CNL


Example: see airport list